Time;durP1;ratioP1;P1;durP2;ratioP2;P2;SDS_P1;SDS_P2;PMS_P1;PMS_P2;Temp;Humidity;BMP_temperature;BMP_pressure;BME280_temperature;BME280_humidity;BME280_pressure;Samples;Min_cycle;Max_cycle;Signal;HPM_P1;HPM_P2
2024/01/04 00:00:25;;;;;;;0.70;0.50;;;8.70;99.90;;;;;;5007126;28;20057;-70
2024/01/04 00:02:51;;;;;;;3.30;0.43;;;8.70;99.90;;;;;;5011156;28;20037;-70
2024/01/04 00:05:17;;;;;;;0.85;0.60;;;8.70;99.90;;;;;;5005393;28;20026;-70
2024/01/04 00:07:43;;;;;;;0.70;0.70;;;8.80;99.90;;;;;;5011769;28;20040;-70
2024/01/04 00:10:09;;;;;;;2.45;0.90;;;8.80;99.90;;;;;;5011409;28;20053;-70
2024/01/04 00:12:35;;;;;;;1.13;0.52;;;8.70;99.90;;;;;;5009236;28;20099;-70
2024/01/04 00:15:03;;;;;;;9.25;0.63;;;8.80;99.90;;;;;;5012530;28;20096;-70
2024/01/04 00:17:29;;;;;;;0.90;0.50;;;8.80;99.90;;;;;;5011058;28;20032;-69
2024/01/04 00:19:55;;;;;;;0.10;0.10;;;8.80;99.90;;;;;;5008199;28;20584;-70
2024/01/04 00:22:21;;;;;;;3.70;0.60;;;8.90;99.90;;;;;;5016490;28;20025;-70
2024/01/04 00:24:47;;;;;;;0.38;0.17;;;8.90;99.90;;;;;;5010372;28;20027;-70
2024/01/04 00:27:12;;;;;;;1.00;0.50;;;9.00;99.90;;;;;;5008918;28;21166;-70
2024/01/04 00:29:39;;;;;;;3.88;0.40;;;9.00;99.90;;;;;;4995588;28;20098;-70
2024/01/04 00:32:06;;;;;;;2.63;0.50;;;9.00;99.90;;;;;;5005579;28;20490;-69
2024/01/04 00:34:32;;;;;;;0.88;0.38;;;8.90;99.90;;;;;;5012543;28;21240;-69
2024/01/04 00:36:58;;;;;;;3.20;0.50;;;9.00;99.90;;;;;;5018107;28;20213;-69
2024/01/04 00:39:24;;;;;;;0.65;0.30;;;8.90;99.90;;;;;;5013458;28;20022;-69
2024/01/04 00:41:51;;;;;;;0.20;0.20;;;8.90;99.90;;;;;;5014258;28;20041;-70
2024/01/04 00:44:17;;;;;;;8.32;1.02;;;8.90;99.90;;;;;;5016712;28;20117;-70
2024/01/04 00:46:43;;;;;;;7.20;0.45;;;8.90;99.90;;;;;;5014641;28;20033;-69
2024/01/04 00:49:09;;;;;;;0.20;0.20;;;8.90;99.90;;;;;;5014390;28;20033;-69
2024/01/04 00:51:34;;;;;;;0.20;0.20;;;8.90;99.90;;;;;;5011329;28;20087;-70
2024/01/04 00:54:01;;;;;;;6.32;0.52;;;9.00;99.90;;;;;;5013264;28;20773;-69
2024/01/04 00:56:35;;;;;;;7.72;0.43;;;9.00;99.90;;;;;;5015950;28;20048;-70
2024/01/04 00:59:01;;;;;;;3.72;0.55;;;9.00;99.90;;;;;;5011672;28;20092;-69
2024/01/04 01:01:27;;;;;;;1.75;0.40;;;8.90;99.90;;;;;;5009833;28;20033;-70
2024/01/04 01:03:52;;;;;;;0.32;0.15;;;8.90;99.90;;;;;;5011139;28;20144;-69
2024/01/04 01:06:18;;;;;;;2.15;0.57;;;8.80;99.90;;;;;;5008336;28;20034;-70
2024/01/04 01:08:44;;;;;;;1.30;0.77;;;8.80;99.90;;;;;;5001084;28;20402;-70
2024/01/04 01:11:09;;;;;;;3.58;0.50;;;8.80;99.90;;;;;;5011663;28;20251;-69
2024/01/04 01:13:35;;;;;;;3.00;0.82;;;8.80;99.90;;;;;;5013205;28;20766;-69
2024/01/04 01:16:01;;;;;;;2.63;0.70;;;8.80;99.90;;;;;;5001754;28;20029;-70
2024/01/04 01:18:27;;;;;;;5.18;0.65;;;8.80;99.90;;;;;;5006161;28;20487;-69
2024/01/04 01:20:54;;;;;;;0.43;0.35;;;8.80;99.90;;;;;;5009719;28;20417;-71
2024/01/04 01:23:19;;;;;;;3.38;0.68;;;8.70;99.90;;;;;;5014413;28;20026;-71
2024/01/04 01:25:45;;;;;;;5.03;0.85;;;8.70;99.90;;;;;;5008902;28;22066;-70
2024/01/04 01:28:11;;;;;;;4.05;0.75;;;8.70;99.90;;;;;;5013068;28;20069;-70
2024/01/04 01:30:36;;;;;;;6.30;1.80;;;8.70;99.90;;;;;;5010053;28;20034;-70
2024/01/04 01:33:02;;;;;;;10.57;0.98;;;8.60;99.90;;;;;;5007305;28;20029;-70
2024/01/04 01:35:28;;;;;;;3.75;0.65;;;8.70;99.90;;;;;;5015134;28;20061;-70
2024/01/04 01:37:54;;;;;;;1.60;0.60;;;8.60;99.90;;;;;;5011984;28;20725;-70
2024/01/04 01:40:19;;;;;;;2.45;1.38;;;8.50;99.90;;;;;;5011079;28;20075;-70
2024/01/04 01:42:48;;;;;;;3.72;0.43;;;8.40;99.90;;;;;;5017333;28;20033;-69
2024/01/04 01:45:15;;;;;;;9.05;1.23;;;8.40;99.90;;;;;;5013815;28;20123;-69
2024/01/04 01:47:41;;;;;;;7.68;0.73;;;8.40;99.90;;;;;;5020755;28;20040;-70
2024/01/04 01:50:08;;;;;;;5.50;0.60;;;8.40;99.90;;;;;;5036406;28;20037;-70
2024/01/04 01:52:35;;;;;;;5.60;0.70;;;8.40;99.90;;;;;;5010737;28;20038;-70
2024/01/04 01:55:01;;;;;;;2.83;0.70;;;8.50;99.90;;;;;;5016920;28;20048;-72
2024/01/04 01:57:31;;;;;;;7.22;1.02;;;8.50;99.90;;;;;;5015715;28;20504;-70
2024/01/04 01:59:56;;;;;;;;;;;8.50;99.90;;;;;;5014086;28;20037;-70
2024/01/04 02:02:22;;;;;;;0.15;0.15;;;8.50;99.90;;;;;;5007800;28;20330;-69
2024/01/04 02:04:48;;;;;;;0.77;0.52;;;8.40;99.90;;;;;;5010514;28;20033;-68
2024/01/04 02:07:14;;;;;;;10.13;1.80;;;8.30;99.90;;;;;;5011108;28;20121;-70
2024/01/04 02:09:39;;;;;;;8.25;1.65;;;8.30;99.90;;;;;;5012836;28;20037;-69
2024/01/04 02:12:06;;;;;;;6.57;0.75;;;8.20;99.90;;;;;;5008299;28;20130;-71
2024/01/04 02:14:33;;;;;;;4.55;0.65;;;8.20;99.90;;;;;;5015011;28;20077;-70
2024/01/04 02:16:58;;;;;;;6.95;0.82;;;8.20;99.90;;;;;;5016243;28;20107;-71
2024/01/04 02:19:26;;;;;;;2.65;1.20;;;8.20;99.90;;;;;;5006985;28;20147;-73
2024/01/04 02:21:51;;;;;;;2.30;0.88;;;8.20;99.90;;;;;;5016658;28;20502;-70
2024/01/04 02:24:17;;;;;;;7.68;0.43;;;8.30;99.90;;;;;;5011591;28;20041;-70
2024/01/04 02:26:43;;;;;;;8.98;1.33;;;8.50;99.90;;;;;;5009320;28;20026;-70
2024/01/04 02:29:08;;;;;;;13.48;1.45;;;8.50;99.90;;;;;;5013517;28;20034;-69
2024/01/04 02:31:34;;;;;;;10.25;1.58;;;8.60;99.90;;;;;;5009949;28;20057;-70
2024/01/04 02:33:59;;;;;;;13.95;1.77;;;8.80;99.90;;;;;;5007890;28;20133;-70
2024/01/04 02:36:25;;;;;;;12.80;1.10;;;8.80;99.90;;;;;;5012361;28;20038;-71
2024/01/04 02:38:51;;;;;;;8.32;0.43;;;8.80;99.90;;;;;;5010442;28;20680;-69
2024/01/04 02:41:17;;;;;;;6.30;0.77;;;8.80;99.90;;;;;;5015099;28;20494;-70
2024/01/04 02:43:42;;;;;;;9.95;0.85;;;8.80;99.90;;;;;;5014501;28;20486;-69
2024/01/04 02:46:08;;;;;;;7.57;1.67;;;8.60;99.90;;;;;;5013641;28;20033;-70
2024/01/04 02:48:34;;;;;;;1.65;0.73;;;8.50;99.90;;;;;;5015384;28;20044;-70
2024/01/04 02:50:59;;;;;;;9.35;1.83;;;8.40;99.90;;;;;;5019989;28;20748;-70
2024/01/04 02:53:25;;;;;;;9.82;1.02;;;8.30;99.90;;;;;;5008563;28;20058;-70
2024/01/04 02:55:50;;;;;;;5.47;0.60;;;8.20;99.90;;;;;;5012300;28;20041;-71
2024/01/04 02:58:16;;;;;;;6.38;1.00;;;8.10;99.90;;;;;;5009878;28;20485;-71
2024/01/04 03:00:42;;;;;;;12.63;1.30;;;8.10;99.90;;;;;;5011143;28;20128;-70
2024/01/04 03:03:07;;;;;;;1.73;1.30;;;8.10;99.90;;;;;;5011253;28;20104;-71
2024/01/04 03:05:33;;;;;;;4.45;1.20;;;8.10;99.90;;;;;;5008420;28;20091;-70
2024/01/04 03:07:59;;;;;;;14.68;1.40;;;8.00;99.90;;;;;;5013287;28;20033;-70
2024/01/04 03:10:24;;;;;;;2.85;0.82;;;8.00;99.90;;;;;;5013956;28;20453;-70
2024/01/04 03:12:50;;;;;;;5.40;0.63;;;7.90;99.90;;;;;;5008493;28;20050;-69
2024/01/04 03:15:15;;;;;;;1.15;0.35;;;7.90;99.90;;;;;;5015145;28;20037;-70
2024/01/04 03:17:41;;;;;;;3.53;0.82;;;7.80;99.90;;;;;;5011600;28;20025;-70
2024/01/04 03:20:07;;;;;;;6.20;0.80;;;7.90;99.90;;;;;;5011256;28;20029;-70
2024/01/04 03:22:33;;;;;;;2.88;0.82;;;7.80;99.90;;;;;;5013370;28;20035;-70
2024/01/04 03:24:59;;;;;;;8.35;0.80;;;7.70;99.90;;;;;;5013121;28;20025;-70
2024/01/04 03:27:24;;;;;;;5.00;1.90;;;7.70;99.90;;;;;;5011058;28;20056;-71
2024/01/04 03:29:52;;;;;;;7.10;1.35;;;7.70;99.90;;;;;;5013055;28;20083;-70
2024/01/04 03:32:17;;;;;;;1.98;0.55;;;7.70;99.90;;;;;;5007881;28;20715;-71
2024/01/04 03:34:43;;;;;;;2.53;0.55;;;7.70;99.90;;;;;;5011424;28;20064;-70
2024/01/04 03:37:09;;;;;;;6.03;1.08;;;7.60;99.90;;;;;;5014250;28;20835;-71
2024/01/04 03:39:34;;;;;;;0.70;0.50;;;7.60;99.90;;;;;;5005604;28;20042;-71
2024/01/04 03:42:00;;;;;;;1.08;0.30;;;7.60;99.90;;;;;;5013784;28;20037;-70
2024/01/04 03:44:26;;;;;;;13.65;2.47;;;7.50;99.90;;;;;;5013229;28;20029;-70
2024/01/04 03:46:51;;;;;;;4.18;0.70;;;7.60;99.90;;;;;;5009269;28;20083;-70
2024/01/04 03:49:17;;;;;;;2.42;0.85;;;7.50;99.90;;;;;;5012567;28;20386;-70
2024/01/04 03:51:43;;;;;;;0.68;0.35;;;7.50;99.90;;;;;;5010353;28;20021;-70
2024/01/04 03:54:08;;;;;;;3.22;1.33;;;7.60;99.90;;;;;;5006172;28;20056;-71
2024/01/04 03:56:34;;;;;;;6.50;0.70;;;7.60;99.90;;;;;;5012184;28;20034;-70
2024/01/04 03:59:00;;;;;;;15.23;0.95;;;7.60;99.90;;;;;;5008601;28;20045;-71
2024/01/04 04:01:25;;;;;;;6.75;1.65;;;7.70;99.90;;;;;;5009337;28;20042;-70
2024/01/04 04:03:51;;;;;;;4.13;0.63;;;7.70;99.90;;;;;;5008406;28;20446;-70
2024/01/04 04:06:20;;;;;;;1.50;1.35;;;7.70;99.90;;;;;;5006403;28;20133;-70
2024/01/04 04:08:46;;;;;;;;;;;7.80;99.90;;;;;;5017777;28;20490;-70
2024/01/04 04:11:19;;;;;;;2.03;1.35;;;7.80;99.90;;;;;;5013745;28;19916;-71
2024/01/04 04:13:45;;;;;;;5.45;0.63;;;7.80;99.90;;;;;;5005142;28;20037;-70
2024/01/04 04:16:10;;;;;;;6.70;0.93;;;7.70;99.90;;;;;;5016151;28;20140;-70
2024/01/04 04:18:36;;;;;;;1.10;0.55;;;7.70;99.90;;;;;;5009576;28;20068;-69
2024/01/04 04:21:02;;;;;;;0.52;0.10;;;7.70;99.90;;;;;;5008646;28;20143;-70
2024/01/04 04:23:28;;;;;;;5.28;1.00;;;7.70;99.90;;;;;;5012084;28;20034;-70
2024/01/04 04:25:54;;;;;;;12.38;0.30;;;7.60;99.90;;;;;;5008875;28;20480;-70
2024/01/04 04:28:19;;;;;;;2.17;1.55;;;7.60;99.90;;;;;;5014410;28;20743;-70
2024/01/04 04:30:45;;;;;;;4.03;0.55;;;7.60;99.90;;;;;;5010235;28;20490;-72
2024/01/04 04:33:10;;;;;;;1.65;0.30;;;7.60;99.90;;;;;;5006363;28;20042;-70
2024/01/04 04:35:36;;;;;;;0.95;0.10;;;7.50;99.90;;;;;;5012741;28;20061;-70
2024/01/04 04:38:02;;;;;;;4.15;1.45;;;7.50;99.90;;;;;;5014713;28;20025;-70
2024/01/04 04:40:27;;;;;;;0.47;0.38;;;7.50;99.90;;;;;;5018384;28;20010;-70
2024/01/04 04:42:53;;;;;;;6.10;0.50;;;7.40;99.90;;;;;;5031469;28;20066;-71
2024/01/04 04:45:19;;;;;;;0.35;0.35;;;7.40;99.90;;;;;;5012556;28;20068;-69
2024/01/04 04:47:44;;;;;;;1.15;0.50;;;7.30;99.90;;;;;;5010858;28;20447;-70
2024/01/04 04:50:10;;;;;;;7.57;0.60;;;7.30;99.90;;;;;;5017003;28;20033;-70
2024/01/04 04:52:36;;;;;;;0.65;0.65;;;7.10;99.90;;;;;;5012261;28;20026;-70
2024/01/04 04:55:02;;;;;;;7.72;1.30;;;7.10;99.90;;;;;;5012426;28;20037;-70
2024/01/04 04:57:27;;;;;;;1.45;0.47;;;7.00;99.90;;;;;;5012032;28;20501;-70
2024/01/04 04:59:53;;;;;;;2.22;0.52;;;7.00;99.90;;;;;;5010628;28;20116;-71
2024/01/04 05:02:19;;;;;;;5.03;1.35;;;6.90;99.90;;;;;;5012865;28;20426;-70
2024/01/04 05:04:45;;;;;;;5.25;0.93;;;6.90;99.90;;;;;;4996026;28;20033;-70
2024/01/04 05:07:11;;;;;;;10.48;0.95;;;6.90;99.90;;;;;;5004716;28;20030;-69
2024/01/04 05:09:36;;;;;;;6.15;0.70;;;6.90;99.90;;;;;;5014237;28;20030;-71
2024/01/04 05:12:02;;;;;;;5.70;0.95;;;6.90;99.90;;;;;;5002321;28;20525;-70
2024/01/04 05:14:28;;;;;;;5.47;1.35;;;6.90;99.90;;;;;;5007701;28;20079;-70
2024/01/04 05:16:54;;;;;;;5.07;0.63;;;6.80;99.90;;;;;;5012110;28;20042;-70
2024/01/04 05:19:20;;;;;;;3.72;0.85;;;6.70;99.90;;;;;;5005957;28;20033;-70
2024/01/04 05:21:46;;;;;;;10.32;0.43;;;6.70;99.90;;;;;;5010492;28;20034;-70
2024/01/04 05:24:11;;;;;;;3.33;0.50;;;6.70;99.90;;;;;;5013197;28;20088;-71
2024/01/04 05:26:37;;;;;;;5.05;1.10;;;6.70;99.90;;;;;;5010980;28;20030;-71
2024/01/04 05:29:03;;;;;;;0.85;0.20;;;6.60;99.90;;;;;;5016135;28;20029;-70
2024/01/04 05:31:28;;;;;;;20.77;2.05;;;6.60;99.90;;;;;;5016947;28;20506;-70
2024/01/04 05:33:54;;;;;;;5.20;0.63;;;6.60;99.90;;;;;;5009006;28;20044;-71
2024/01/04 05:36:20;;;;;;;3.78;0.60;;;6.50;99.90;;;;;;5018209;28;20049;-71
2024/01/04 05:38:46;;;;;;;2.28;1.20;;;6.40;99.90;;;;;;5017769;28;20042;-71
2024/01/04 05:41:11;;;;;;;6.35;0.85;;;6.40;99.90;;;;;;5015363;28;20026;-70
2024/01/04 05:43:37;;;;;;;6.40;1.00;;;6.40;99.90;;;;;;5016030;28;20076;-70
2024/01/04 05:46:04;;;;;;;1.05;0.60;;;6.30;99.90;;;;;;5012090;28;20120;-69
2024/01/04 05:48:30;;;;;;;1.23;0.60;;;6.20;99.90;;;;;;5013939;28;20041;-70
2024/01/04 05:50:56;;;;;;;0.55;0.55;;;6.20;99.90;;;;;;5018538;28;20048;-70
2024/01/04 05:53:22;;;;;;;0.40;0.25;;;6.10;99.90;;;;;;5013378;28;20029;-71
2024/01/04 05:55:47;;;;;;;5.63;0.50;;;6.00;99.90;;;;;;5012316;28;21014;-70
2024/01/04 05:58:13;;;;;;;5.38;1.38;;;6.00;99.90;;;;;;5016154;28;20026;-71
2024/01/04 06:00:39;;;;;;;0.28;0.28;;;5.90;99.90;;;;;;5008615;28;20049;-70
2024/01/04 06:03:04;;;;;;;0.17;0.17;;;5.70;99.90;;;;;;5014673;28;20387;-71
2024/01/04 06:05:30;;;;;;;1.60;0.80;;;5.70;99.90;;;;;;5017010;28;20056;-70
2024/01/04 06:07:56;;;;;;;8.43;0.82;;;5.60;99.90;;;;;;5011176;28;20048;-70
2024/01/04 06:10:21;;;;;;;3.35;0.65;;;5.70;99.90;;;;;;5013187;28;20632;-70
2024/01/04 06:12:47;;;;;;;0.65;0.65;;;5.80;99.90;;;;;;5013630;28;20065;-70
2024/01/04 06:15:13;;;;;;;1.33;0.50;;;5.80;99.90;;;;;;5014096;28;20069;-70
2024/01/04 06:17:38;;;;;;;1.23;1.13;;;5.80;99.90;;;;;;5015462;28;20781;-70
2024/01/04 06:20:04;;;;;;;12.32;0.50;;;5.70;99.90;;;;;;4996422;28;20038;-70
2024/01/04 06:22:30;;;;;;;9.95;1.00;;;5.70;99.90;;;;;;5016114;28;20020;-69
2024/01/04 06:24:55;;;;;;;2.92;0.88;;;5.70;99.90;;;;;;5011636;28;20033;-70
2024/01/04 06:27:21;;;;;;;2.28;0.77;;;5.70;99.90;;;;;;4996694;28;20449;-70
2024/01/04 06:29:47;;;;;;;3.30;1.05;;;5.60;99.90;;;;;;5012468;28;20029;-70
2024/01/04 06:32:12;;;;;;;10.43;1.30;;;5.60;99.90;;;;;;5013472;28;20037;-70
2024/01/04 06:34:38;;;;;;;0.13;0.13;;;5.50;99.90;;;;;;5008414;28;20080;-71
2024/01/04 06:37:04;;;;;;;6.53;1.20;;;5.40;99.90;;;;;;5018885;28;20038;-70
2024/01/04 06:39:29;;;;;;;6.32;0.80;;;5.40;99.90;;;;;;5010780;28;20384;-71
2024/01/04 06:41:56;;;;;;;0.80;0.45;;;5.30;99.90;;;;;;5012841;28;20126;-71
2024/01/04 06:44:22;;;;;;;11.02;1.02;;;5.40;99.90;;;;;;5013409;28;20107;-70
2024/01/04 06:46:47;;;;;;;0.93;0.60;;;5.50;99.90;;;;;;5010367;28;20489;-71
2024/01/04 06:49:13;;;;;;;4.70;0.55;;;5.50;99.90;;;;;;5014707;28;20038;-70
2024/01/04 06:51:39;;;;;;;4.55;0.43;;;5.70;99.90;;;;;;5015852;28;20054;-68
2024/01/04 06:54:04;;;;;;;6.97;0.65;;;5.80;99.90;;;;;;5009005;28;20141;-70
2024/01/04 06:56:30;;;;;;;3.45;0.65;;;5.90;99.90;;;;;;5013424;28;21124;-70
2024/01/04 06:58:56;;;;;;;6.00;1.02;;;6.00;99.90;;;;;;5014923;28;20041;-70
2024/01/04 07:01:21;;;;;;;9.93;1.23;;;6.10;99.90;;;;;;5009499;28;20033;-71
2024/01/04 07:03:48;;;;;;;2.85;1.15;;;6.20;99.90;;;;;;5012571;28;20034;-70
2024/01/04 07:06:13;;;;;;;2.50;0.75;;;6.30;99.90;;;;;;5001122;28;20382;-70
2024/01/04 07:08:39;;;;;;;0.15;0.13;;;6.30;99.90;;;;;;5011670;28;20351;-71
2024/01/04 07:11:05;;;;;;;1.25;0.40;;;6.30;99.90;;;;;;4999626;28;20040;-71
2024/01/04 07:13:33;;;;;;;0.55;0.47;;;6.30;99.90;;;;;;5004961;28;20509;-70
2024/01/04 07:16:02;;;;;;;5.75;1.55;;;6.30;99.90;;;;;;5008426;28;20044;-71
2024/01/04 07:18:28;;;;;;;7.20;1.47;;;6.20;99.90;;;;;;5012897;28;20038;-70
2024/01/04 07:20:53;;;;;;;8.65;1.40;;;6.30;99.90;;;;;;5009769;28;20482;-70
2024/01/04 07:23:20;;;;;;;7.82;1.52;;;6.30;99.90;;;;;;5013798;28;20720;-71
2024/01/04 07:25:45;;;;;;;9.73;1.15;;;6.20;99.90;;;;;;5013383;28;20516;-70
2024/01/04 07:28:11;;;;;;;11.00;1.17;;;6.20;99.90;;;;;;5011195;28;20034;-70
2024/01/04 07:30:37;;;;;;;7.47;1.05;;;6.10;99.90;;;;;;5014055;28;20038;-70
2024/01/04 07:33:03;;;;;;;1.98;1.10;;;6.10;99.90;;;;;;5011266;28;20018;-69
2024/01/04 07:35:29;;;;;;;2.08;0.50;;;6.00;99.90;;;;;;5008557;28;20052;-70
2024/01/04 07:37:54;;;;;;;0.45;0.40;;;5.90;99.90;;;;;;5012870;28;20370;-70
2024/01/04 07:40:20;;;;;;;0.52;0.47;;;5.80;99.90;;;;;;5004503;28;20037;-71
2024/01/04 07:42:46;;;;;;;4.13;0.85;;;5.80;99.90;;;;;;5008912;28;20065;-70
2024/01/04 07:45:12;;;;;;;1.98;0.30;;;5.70;99.90;;;;;;5006517;28;20040;-71
2024/01/04 07:47:38;;;;;;;0.82;0.35;;;5.70;99.90;;;;;;5004447;28;20045;-71
2024/01/04 07:50:04;;;;;;;2.60;1.42;;;5.60;99.90;;;;;;5005361;28;20128;-69
2024/01/04 07:52:30;;;;;;;4.03;1.13;;;5.60;99.90;;;;;;5006544;28;20838;-71
2024/01/04 07:54:56;;;;;;;0.80;0.30;;;5.50;99.90;;;;;;5002268;28;20063;-70
2024/01/04 07:57:22;;;;;;;2.95;0.85;;;5.50;99.90;;;;;;5012081;28;20048;-71
2024/01/04 07:59:47;;;;;;;3.72;0.52;;;5.50;99.90;;;;;;5000041;28;20144;-69
2024/01/04 08:02:13;;;;;;;9.93;1.45;;;5.50;99.90;;;;;;5007107;28;20041;-70
2024/01/04 08:04:38;;;;;;;3.47;0.65;;;5.40;99.90;;;;;;5003413;28;20075;-70
2024/01/04 08:07:04;;;;;;;1.17;0.63;;;5.30;99.90;;;;;;5004269;28;20025;-71
2024/01/04 08:09:30;;;;;;;1.23;0.95;;;5.30;99.90;;;;;;5011472;28;20111;-70
2024/01/04 08:11:55;;;;;;;2.65;1.17;;;5.30;99.90;;;;;;5003310;28;20054;-70
2024/01/04 08:14:21;;;;;;;3.10;0.28;;;5.30;99.90;;;;;;5000825;28;20041;-70
2024/01/04 08:16:47;;;;;;;7.28;1.08;;;5.30;99.90;;;;;;5004362;28;20041;-70
2024/01/04 08:19:14;;;;;;;0.35;0.35;;;5.30;99.90;;;;;;5005196;28;20087;-73
2024/01/04 08:21:40;;;;;;;1.17;0.73;;;5.40;99.90;;;;;;4997741;28;20034;-74
2024/01/04 08:24:06;;;;;;;4.50;0.85;;;5.40;99.90;;;;;;4994936;28;20053;-69
2024/01/04 08:26:32;;;;;;;3.13;0.73;;;5.40;99.90;;;;;;5000559;28;21649;-70
2024/01/04 08:28:58;;;;;;;10.25;1.00;;;5.40;99.90;;;;;;5000052;28;20040;-70
2024/01/04 08:31:23;;;;;;;21.35;1.17;;;5.40;99.90;;;;;;4999909;28;20504;-70
2024/01/04 08:33:49;;;;;;;8.13;1.50;;;5.40;99.90;;;;;;4996208;28;20064;-69
2024/01/04 08:36:14;;;;;;;10.52;0.88;;;5.40;99.90;;;;;;4995067;28;20142;-71
2024/01/04 08:38:40;;;;;;;16.17;1.83;;;5.40;99.90;;;;;;4996915;28;20038;-70
2024/01/04 08:41:06;;;;;;;5.15;1.08;;;5.40;99.90;;;;;;4995160;28;20037;-69
2024/01/04 08:43:31;;;;;;;1.23;0.65;;;5.50;99.90;;;;;;5003212;28;20080;-69
2024/01/04 08:45:57;;;;;;;2.80;0.20;;;5.50;99.90;;;;;;4986062;28;20124;-73
2024/01/04 08:48:23;;;;;;;7.68;0.40;;;5.60;99.90;;;;;;4993157;28;20033;-72
2024/01/04 08:50:48;;;;;;;0.60;0.50;;;5.60;99.90;;;;;;4997327;28;20121;-73
2024/01/04 08:53:20;;;;;;;2.72;1.05;;;5.60;99.90;;;;;;5001041;28;20025;-72
2024/01/04 08:55:46;;;;;;;4.78;0.75;;;5.60;99.90;;;;;;4997318;28;20054;-74
2024/01/04 08:58:11;;;;;;;1.92;0.95;;;5.50;99.90;;;;;;5002893;28;21003;-72
2024/01/04 09:00:37;;;;;;;5.43;0.85;;;5.50;99.90;;;;;;4998333;28;20037;-73
2024/01/04 09:03:03;;;;;;;5.03;1.20;;;5.50;99.90;;;;;;4995286;28;20145;-72
2024/01/04 09:05:30;;;;;;;3.38;1.42;;;5.60;99.90;;;;;;4997619;28;20109;-71
2024/01/04 09:07:55;;;;;;;6.90;1.92;;;5.60;99.90;;;;;;4997889;28;20170;-71
2024/01/04 09:10:21;;;;;;;14.00;1.08;;;5.70;99.90;;;;;;5002375;28;20041;-71
2024/01/04 09:12:47;;;;;;;2.58;0.50;;;5.70;99.90;;;;;;4996330;28;20482;-72
2024/01/04 09:15:13;;;;;;;9.50;0.90;;;5.80;99.90;;;;;;4994361;28;20053;-72
2024/01/04 09:17:41;;;;;;;1.70;1.20;;;5.90;99.90;;;;;;5003177;28;20042;-71
2024/01/04 09:20:07;;;;;;;8.55;1.17;;;5.90;99.90;;;;;;5001456;28;20529;-71
2024/01/04 09:22:32;;;;;;;3.92;1.20;;;6.00;99.90;;;;;;5005565;28;20042;-70
2024/01/04 09:24:59;;;;;;;4.60;1.02;;;6.10;99.90;;;;;;5008552;28;20056;-70
2024/01/04 09:27:25;;;;;;;6.20;0.90;;;6.20;99.90;;;;;;5007214;28;20060;-72
2024/01/04 09:29:52;;;;;;;7.43;1.02;;;6.30;99.90;;;;;;5004374;28;20037;-71
2024/01/04 09:32:18;;;;;;;0.73;0.73;;;6.30;99.90;;;;;;5008847;28;20041;-70
2024/01/04 09:34:43;;;;;;;5.18;1.33;;;6.40;99.90;;;;;;5000921;28;20136;-72
2024/01/04 09:37:10;;;;;;;5.20;1.48;;;;;;;;;;5001263;28;20041;-73
2024/01/04 09:39:37;;;;;;;3.80;1.17;;;7.00;99.90;;;;;;5001837;28;20033;-73
2024/01/04 09:42:06;;;;;;;1.65;0.98;;;6.70;99.90;;;;;;5000833;28;20046;-72
2024/01/04 09:44:33;;;;;;;1.98;0.65;;;6.90;99.90;;;;;;5009040;28;20540;-72
2024/01/04 09:47:07;;;;;;;2.67;1.25;;;7.00;99.90;;;;;;5005370;28;20042;-72
2024/01/04 09:49:33;;;;;;;5.90;1.17;;;7.20;99.90;;;;;;5009537;28;20037;-73
2024/01/04 09:51:59;;;;;;;8.43;1.33;;;7.40;99.90;;;;;;5010406;28;20077;-75
2024/01/04 09:54:25;;;;;;;2.15;0.82;;;7.50;99.90;;;;;;4999315;28;20140;-74
2024/01/04 09:56:53;;;;;;;3.20;0.65;;;7.70;99.90;;;;;;5003362;28;20043;-73
2024/01/04 09:59:21;;;;;;;6.18;1.77;;;7.90;99.90;;;;;;5001216;28;20044;-73
2024/01/04 10:01:48;;;;;;;1.17;0.80;;;7.90;99.90;;;;;;4995139;28;20034;-71
2024/01/04 10:04:16;;;;;;;6.45;1.58;;;8.00;99.90;;;;;;5005192;28;20279;-71
2024/01/04 10:06:43;;;;;;;0.47;0.47;;;8.20;99.90;;;;;;5003704;28;20026;-72
2024/01/04 10:09:26;;;;;;;2.40;1.33;;;8.30;99.90;;;;;;4990808;28;20037;-72
2024/01/04 10:11:59;;;;;;;16.30;1.60;;;8.50;99.90;;;;;;5001562;28;20081;-73
2024/01/04 10:14:26;;;;;;;4.90;2.10;;;8.70;99.90;;;;;;5002768;28;20037;-74
2024/01/04 10:16:53;;;;;;;6.30;2.10;;;8.80;99.90;;;;;;5010448;28;20116;-72
2024/01/04 10:19:19;;;;;;;2.08;1.67;;;8.90;99.90;;;;;;5012383;28;20157;-73
2024/01/04 10:21:45;;;;;;;6.93;1.98;;;9.10;99.90;;;;;;5001157;28;20481;-74
2024/01/04 10:24:15;;;;;;;5.57;1.67;;;9.10;99.90;;;;;;5006187;28;20035;-69
2024/01/04 10:26:42;;;;;;;8.18;1.48;;;9.20;99.90;;;;;;4999166;28;20041;-69
2024/01/04 10:29:08;;;;;;;7.70;1.30;;;9.40;99.90;;;;;;4999087;28;20044;-68
2024/01/04 10:31:35;;;;;;;7.53;1.50;;;9.50;99.90;;;;;;4998023;28;20052;-68
2024/01/04 10:34:02;;;;;;;6.53;1.27;;;9.60;99.90;;;;;;4996787;28;20156;-68
2024/01/04 10:36:28;;;;;;;8.90;2.92;;;9.60;99.90;;;;;;4999170;28;20132;-68
2024/01/04 10:39:08;;;;;;;4.60;1.75;;;9.70;99.90;;;;;;5005289;28;20026;-69
2024/01/04 10:41:34;;;;;;;12.50;2.63;;;9.80;99.90;;;;;;4997670;28;20029;-69
2024/01/04 10:44:05;;;;;;;18.63;2.30;;;9.80;99.90;;;;;;5002776;28;20041;-69
2024/01/04 10:46:34;;;;;;;8.63;2.80;;;9.70;99.90;;;;;;4999462;28;20144;-70
2024/01/04 10:49:02;;;;;;;5.65;1.60;;;9.70;99.90;;;;;;4991131;28;20043;-70
2024/01/04 10:51:31;;;;;;;2.08;0.88;;;9.70;99.90;;;;;;5001373;28;20520;-69
2024/01/04 10:54:00;;;;;;;18.88;2.10;;;9.70;99.90;;;;;;4996761;28;20040;-69
2024/01/04 10:56:30;;;;;;;5.05;1.20;;;9.70;99.90;;;;;;5000209;28;20045;-70
2024/01/04 10:58:57;;;;;;;4.80;1.45;;;9.70;99.90;;;;;;5003424;28;20504;-70
2024/01/04 11:01:22;;;;;;;6.18;1.25;;;9.60;99.90;;;;;;4995984;28;20851;-69
2024/01/04 11:03:49;;;;;;;3.67;1.42;;;9.70;99.90;;;;;;4988693;28;20074;-71
2024/01/04 11:06:15;;;;;;;4.30;0.80;;;9.70;99.90;;;;;;5008379;28;20107;-71
2024/01/04 11:08:41;;;;;;;6.97;1.38;;;9.80;99.90;;;;;;5003981;28;20048;-67
2024/01/04 11:11:09;;;;;;;6.05;0.98;;;9.90;99.90;;;;;;5004572;28;21746;-71
2024/01/04 11:13:35;;;;;;;3.17;1.08;;;9.90;99.90;;;;;;5007597;28;20053;-74
2024/01/04 11:16:12;;;;;;;0.80;0.80;;;9.90;99.90;;;;;;5007890;28;20037;-71
2024/01/04 11:18:46;;;;;;;6.35;1.10;;;9.80;99.90;;;;;;5010653;28;20025;-71
2024/01/04 11:21:33;;;;;;;21.70;2.95;;;9.80;99.90;;;;;;4995108;28;20449;-71
2024/01/04 11:24:05;;;;;;;5.63;1.20;;;9.80;99.90;;;;;;4997400;28;20045;-71
2024/01/04 11:26:56;;;;;;;2.88;1.05;;;9.80;99.90;;;;;;5005609;28;20121;-72
2024/01/04 11:29:23;;;;;;;7.53;2.63;;;9.80;99.90;;;;;;5003228;28;20033;-72
2024/01/04 11:31:49;;;;;;;6.60;1.50;;;9.80;99.90;;;;;;5005569;28;20704;-72
2024/01/04 11:34:15;;;;;;;13.85;2.05;;;9.80;99.90;;;;;;5005070;28;20034;-71
2024/01/04 11:36:41;;;;;;;12.70;1.92;;;9.90;99.90;;;;;;5009488;28;20037;-71
2024/01/04 11:39:07;;;;;;;3.75;1.17;;;10.00;99.90;;;;;;5011076;28;20034;-71
2024/01/04 11:41:34;;;;;;;6.30;2.40;;;10.10;99.90;;;;;;5005911;28;20446;-71
2024/01/04 11:44:00;;;;;;;10.85;1.80;;;10.20;99.90;;;;;;5027469;28;20040;-70
2024/01/04 11:46:26;;;;;;;5.53;1.75;;;10.30;99.90;;;;;;5034994;28;20034;-70
2024/01/04 11:49:03;;;;;;;13.73;1.67;;;10.30;99.90;;;;;;5005236;28;20036;-71
2024/01/04 11:51:32;;;;;;;5.75;1.92;;;10.50;99.90;;;;;;5002923;28;20038;-70
2024/01/04 11:53:58;;;;;;;5.07;0.85;;;10.50;99.90;;;;;;5004341;28;20391;-71
2024/01/04 11:56:24;;;;;;;6.63;1.38;;;10.50;99.90;;;;;;5002622;28;20044;-71
2024/01/04 11:58:51;;;;;;;12.43;2.70;;;10.50;99.90;;;;;;5005211;28;20094;-72
2024/01/04 12:01:24;;;;;;;12.32;1.70;;;10.50;99.90;;;;;;4993513;28;20037;-73
2024/01/04 12:03:52;;;;;;;4.32;1.05;;;10.50;99.90;;;;;;5006525;28;20034;-72
2024/01/04 12:06:21;;;;;;;6.75;1.00;;;10.60;99.90;;;;;;5006550;28;20034;-73
2024/01/04 12:08:48;;;;;;;7.75;1.33;;;10.70;99.90;;;;;;5002307;28;20061;-73
2024/01/04 12:11:15;;;;;;;4.68;0.85;;;10.80;99.90;;;;;;5005701;28;20033;-74
2024/01/04 12:14:34;;;;;;;4.75;1.25;;;10.70;99.90;;;;;;5003330;28;20034;-74
2024/01/04 12:17:00;;;;;;;5.10;1.20;;;10.60;99.90;;;;;;5007857;28;20144;-73
2024/01/04 12:19:26;;;;;;;7.13;1.00;;;10.60;99.90;;;;;;5010399;28;20047;-72
2024/01/04 12:21:51;;;;;;;3.25;0.63;;;10.70;99.90;;;;;;5005461;28;20069;-72
2024/01/04 12:24:17;;;;;;;5.35;0.88;;;10.80;99.90;;;;;;5004537;28;20451;-73
2024/01/04 12:26:44;;;;;;;2.85;0.90;;;10.70;99.90;;;;;;5006052;28;20497;-72
2024/01/04 12:29:09;;;;;;;4.45;0.93;;;10.60;99.90;;;;;;5004434;28;20168;-72
2024/01/04 12:31:38;;;;;;;2.50;0.63;;;10.40;99.90;;;;;;5004870;28;20060;-72
2024/01/04 12:34:03;;;;;;;9.27;1.30;;;10.30;99.90;;;;;;5008893;28;20693;-72
2024/01/04 12:36:30;;;;;;;2.45;0.52;;;10.10;99.90;;;;;;5013562;28;20040;-74
2024/01/04 12:39:09;;;;;;;1.50;0.98;;;10.20;99.90;;;;;;5015384;28;20061;-73
2024/01/04 12:41:37;;;;;;;10.07;0.90;;;10.20;99.90;;;;;;5009010;28;20561;-72
2024/01/04 12:44:04;;;;;;;7.88;0.80;;;10.10;99.90;;;;;;5011123;28;20826;-72
2024/01/04 12:46:31;;;;;;;2.50;1.05;;;10.00;99.90;;;;;;5002824;28;20068;-75
2024/01/04 12:49:07;;;;;;;7.82;0.98;;;10.00;99.90;;;;;;5000741;28;20509;-72
2024/01/04 12:51:35;;;;;;;4.28;0.65;;;10.10;99.90;;;;;;5012482;28;20501;-73